Weather observations for the past three days for
Appleton-Outagamie
Metric (Imperial)
Date Time (cdt) Wind (kph) Vis. (km) Weather Sky Cond. Temperature (ºC) Relative Humidity Wind Chill (°C) Heat Index (°C) Pressure Precipitation (cm)
Air Dwpt 6 hour altimeter (cm) sea level (mb) 1 hr 3 hr 6 hr
Max. Min.
10 16:45 NW 19 16.09 Mostly Cloudy BKN100 14 -2 33% 76.4 0.0
10 15:45 W 30 G 41 16.09 Mostly Cloudy BKN100 15 -2 31% 76.38 0.0
10 14:45 W 26 G 41 16.09 Mostly Cloudy BKN070 15 -2 31% 76.38 0.0
10 13:45 NW 26 G 41 16.09 Mostly Cloudy BKN065 14 -2 33% 76.38 0.0
10 12:45 W 30 G 44 16.09 Mostly Cloudy BKN065 13 -2 36% 76.35 0.0
10 11:45 W 30 G 44 16.09 Mostly Cloudy BKN075 14 -3 31% 76.35 0.0
10 10:45 W 17 G 37 16.09 Mostly Cloudy BKN075 13 -2 36% 76.35 0.0
10 09:45 SW 15 16.09 Mostly Cloudy BKN070 12 -1 41% 76.35 0.0
10 08:45 W 13 16.09 Partly Cloudy SCT048 10 -1 47% 8 76.33 0.0
10 07:45 SW 15 16.09 Mostly Cloudy BKN110 9 -1 50% 7 76.3 0.0
10 06:45 SW 15 16.09 Fair CLR 6 -2 57% 3 76.28 0.0
10 05:45 W 13 16.09 Fair CLR 4 -2 65% 1 76.23 0.0
10 05:15 W 11 16.09 Fair CLR 4 -1 70% 2 76.2 0.0
10 04:55 W 13 16.09 Fair CLR 3 -2 70% 0 76.2 0.0
10 04:35 W 11 16.09 Fair CLR 4 -2 65% 2 76.17 0.0
10 04:15 W 11 16.09 Partly Cloudy SCT080 3 -2 70% 0 76.15 0.0
10 03:55 W 11 16.09 Mostly Cloudy BKN080 3 -2 70% 0 76.15 0.0
10 03:35 W 11 16.09 Overcast OVC080 5 -2 61% 3 76.12 0.0
10 03:15 W 11 16.09 Mostly Cloudy BKN080 5 -2 61% 3 76.1 0.0
10 02:55 W 11 16.09 Partly Cloudy SCT080 4 -2 65% 2 76.1 0.0
10 02:35 NW 11 16.09 Partly Cloudy SCT090 5 -3 57% 3 76.07 0.0
10 02:15 NW 9 16.09 Mostly Cloudy BKN090 5 -3 57% 3 76.07 0.0
10 01:55 NW 7 16.09 Partly Cloudy SCT090 5 -3 57% 4 76.05 0.0
10 01:35 NW 7 16.09 Fair CLR 5 -3 57% 4 76.05 0.0
10 01:15 NW 9 16.09 Fair CLR 5 -3 57% 3 76.05 0.0
10 00:55 N 7 16.09 Fair CLR 5 -3 57% 4 76.05 0.0
10 00:35 N 7 16.09 Fair CLR 6 -3 53% 5 76.02 0.0
10 00:15 N 6 16.09 Fair CLR 6 -3 53% 76 0.0
09 23:55 N 6 16.09 Fair CLR 6 -3 53% 76 0.0
09 23:35 N 7 16.09 Fair CLR 7 -2 53% 6 75.97 0.0
09 23:15 Calm 16.09 Fair CLR 8 -3 46% 75.95 0.0
09 22:55 Calm 16.09 Fair CLR 8 -3 46% 75.95 0.0
09 22:45 N 6 16.09 Partly Cloudy SCT100 8 -3 46% 75.95 0.0
09 21:45 N 13 16.09 Partly Cloudy SCT100 10 -3 40% 8 75.92 0.0
09 20:45 N 17 16.09 Partly Cloudy SCT100 12 -3 35% 75.77 0.0
09 19:45 N 17 16.09 Partly Cloudy SCT100 14 -4 29% 75.64 0.0
09 18:45 NW 20 G 37 16.09 Mostly Cloudy BKN090 16 -5 23% 75.57 0.0
09 17:45 W 33 16.09 Mostly Cloudy and Breezy BKN090 17 -4 24% 75.49 0.0
09 16:45 NW 30 G 44 16.09 Mostly Cloudy BKN080 16 -2 29% 75.44 0.0
09 15:45 NW 30 G 43 16.09 Mostly Cloudy BKN070 16 -1 31% 75.39 0.0
09 14:45 W 31 G 43 16.09 Mostly Cloudy BKN070 17 2 37% 75.34 0.0
09 13:45 NW 26 G 37 16.09 Overcast SCT047 OVC060 15 3 45% 75.31 0.0
09 12:45 W 31 G 44 16.09 Partly Cloudy SCT037 16 6 52% 75.29 0.0
09 11:45 W 24 G 44 16.09 Partly Cloudy SCT039 13 4 55% 75.26 0.0
09 10:45 NW 17 16.09 Overcast OVC070 13 2 47% 75.23 0.0
09 09:45 NW 19 16.09 Overcast OVC070 13 2 47% 75.18 0.0
09 08:45 W 19 16.09 Overcast SCT075 OVC100 12 1 47% 75.18 0.0
09 07:45 W 19 16.09 Mostly Cloudy BKN100 11 1 50% 75.11 0.0
09 06:45 W 19 16.09 Mostly Cloudy BKN120 11 1 50% 75.03 0.0
09 05:45 W 19 16.09 Mostly Cloudy BKN120 11 1 50% 74.96 0.0
09 05:15 W 19 16.09 Fair CLR 11 1 50% 74.96 0.0
09 04:55 W 17 16.09 Fair CLR 11 1 50% 74.96 0.0
09 04:35 W 19 16.09 Fair CLR 12 2 51% 74.93 0.0
09 04:15 SW 15 16.09 Fair CLR 11 2 54% 74.9 0.0
09 03:55 SW 15 16.09 Fair CLR 10 3 62% 8 74.9 0.0
09 03:35 SW 13 16.09 Fair CLR 10 3 62% 8 74.93 0.0
09 03:15 SW 13 16.09 Fair CLR 10 3 62% 8 74.93 0.0
09 02:55 SW 13 16.09 Fair CLR 10 4 67% 8 74.93 0.0
09 02:35 S 9 16.09 Fair CLR 10 5 71% 9 74.96 0.0
09 02:15 S 9 16.09 Fair CLR 11 5 67% 74.96 0.0
09 01:55 S 9 16.09 Fair CLR 10 5 71% 9 74.98 0.0
09 01:30 S 9 16.09 Fair CLR 11 5 67% 75.01 0.0
09 01:15 SE 9 16.09 Fair CLR 12 4 58% 75.03 0.0
09 00:55 SE 9 16.09 Partly Cloudy SCT110 12 3 54% 75.06 0.0
09 00:35 S 9 16.09 Mostly Cloudy BKN110 12 2 51% 75.08 0.0
09 00:15 SE 9 16.09 Partly Cloudy SCT110 14 0 39% 75.08 0.0
08 23:55 Calm 16.09 Mostly Cloudy BKN110 13 2 47% 75.11 0.0
08 23:35 S 6 16.09 Mostly Cloudy BKN110 15 0 36% 75.11 0.0
08 23:15 S 9 16.09 Mostly Cloudy BKN110 15 1 39% 75.16 0.0
08 22:55 Calm 16.09 Mostly Cloudy SCT075 BKN110 15 0 36% 75.16 0.0
08 22:45 Calm 16.09 Mostly Cloudy BKN080 16 -1 31% 75.16 0.0
08 21:45 Calm 16.09 Mostly Cloudy BKN080 16 -1 31% 75.23 0.0
08 20:45 W 9 16.09 Mostly Cloudy BKN095 16 0 34% 75.23 0.0
08 19:45 SW 17 G 31 16.09 Mostly Cloudy BKN080 17 1 34% 75.23 0.0
08 18:45 W 9 16.09 Mostly Cloudy BKN100 18 -1 28% 75.23 0.0
08 17:45 SW 22 G 31 16.09 Partly Cloudy SCT110 19 -3 22% 75.26 0.0
08 16:45 SW 17 G 31 16.09 Mostly Cloudy BKN110 19 -2 24% 75.31 0.0
08 15:45 W 15 16.09 Mostly Cloudy BKN110 19 -2 24% 75.36 0.0
08 14:45 W 20 G 30 16.09 Mostly Cloudy BKN100 19 -2 24% 75.41 0.0
08 13:45 W 28 G 46 16.09 Mostly Cloudy SCT065 BKN095 18 -3 24% 75.46 0.0
08 12:45 SW 28 G 37 16.09 Partly Cloudy SCT095 18 -2 26% 75.54 0.0
08 11:45 SW 22 G 33 16.09 Partly Cloudy SCT085 17 -1 30% 75.62 0.0
08 10:45 SW 19 G 30 16.09 Partly Cloudy SCT120 16 -2 29% 75.64 0.0
08 09:45 SW 20 16.09 Partly Cloudy SCT120 14 -1 36% 75.69 0.0
08 08:45 SW 17 16.09 Partly Cloudy SCT120 12 1 47% 75.72 0.0
08 07:45 SW 17 16.09 Partly Cloudy SCT120 8 2 66% 6 75.72 0.0
08 06:45 SW 9 16.09 Fair CLR 6 2 76% 4 75.69 0.0
08 05:45 SW 11 16.09 Fair CLR 3 1 87% 0 75.69 0.0
08 05:15 SW 11 16.09 Fair CLR 2 0 87% -1 75.69 0.0
08 04:55 SW 13 16.09 Fair CLR 2 0 87% -1 75.69 0.0
08 04:35 SW 11 16.09 Fair CLR 3 0 81% 0 75.69 0.0
08 04:15 SW 13 16.09 Fair CLR 3 0 81% 0 75.69 0.0
08 03:55 SW 13 16.09 Fair CLR 2 0 87% -1 75.72 0.0
08 03:35 SW 11 16.09 Fair CLR 3 0 81% 0 75.72 0.0
08 03:15 S 7 16.09 Fair CLR 2 0 87% 0 75.72 0.0
08 02:55 S 7 16.09 Fair CLR 3 0 81% 1 75.74 0.0
08 02:35 S 7 16.09 Fair CLR 3 0 81% 1 75.77 0.0
08 02:15 S 7 16.09 Fair CLR 3 0 81% 1 75.77 0.0
08 01:55 S 9 16.09 Fair CLR 4 0 75% 2 75.79 0.0
08 01:35 S 9 16.09 Fair CLR 3 0 81% 1 75.79 0.0
08 01:15 S 11 16.09 Fair CLR 3 0 81% 0 75.79 0.0
08 00:55 S 15 16.09 Fair CLR 5 0 70% 2 75.82 0.0
08 00:35 S 11 16.09 Fair CLR 4 0 75% 2 75.82 0.0
08 00:15 S 9 16.09 Fair CLR 4 0 75% 2 75.82 0.0
07 23:55 S 11 16.09 Fair CLR 5 0 70% 3 75.82 0.0
07 23:35 S 9 16.09 Fair CLR 5 -2 61% 3 75.82 0.0
07 23:15 SW 6 16.09 Fair CLR 7 -5 43% 75.84 0.0
07 22:55 SW 6 16.09 Fair CLR 7 -4 46% 75.82 0.0
07 22:45 Calm 16.09 Fair CLR 8 -5 40% 75.82 0.0
07 21:45 Calm 16.09 Fair CLR 8 -4 43% 75.82 0.0
07 20:45 Calm 16.09 Partly Cloudy SCT085 9 -4 40% 75.79 0.0
07 19:45 N 11 16.09 Mostly Cloudy BKN075 11 -3 38% 75.77 0.0
07 18:45 NW 15 16.09 Mostly Cloudy BKN070 12 -4 33% 75.74 0.0
07 17:45 W 11 16.09 Mostly Cloudy BKN065 13 -3 33% 75.74 0.0
Date Time (cdt) Wind (kph) Vis. (km) Weather Sky Cond. Air Dwpt Max. Min. Relative Humidity Wind Chill (°C) Heat Index (°C) altimeter (cm) sea level (mb) 1 hr 3 hr 6 hr
6 hour
Temperature (ºC) Pressure Precipitation (cm)